sensor_id;sensor_type;location;lat;lon;timestamp;P1;durP1;ratioP1;P2;durP2;ratioP2
74799;SDS011;63326;45.088;7.658;2024-03-17T00:02:04;12.57;;;7.57;;
74799;SDS011;63326;45.088;7.658;2024-03-17T00:04:47;14.23;;;7.32;;
74799;SDS011;63326;45.088;7.658;2024-03-17T00:07:17;15.48;;;8.05;;
74799;SDS011;63326;45.088;7.658;2024-03-17T00:09:48;12.88;;;7.40;;
74799;SDS011;63326;45.088;7.658;2024-03-17T00:12:16;12.00;;;7.10;;
74799;SDS011;63326;45.088;7.658;2024-03-17T00:17:09;9.95;;;5.72;;
74799;SDS011;63326;45.088;7.658;2024-03-17T00:19:37;13.90;;;7.80;;
74799;SDS011;63326;45.088;7.658;2024-03-17T00:22:03;14.43;;;6.97;;
74799;SDS011;63326;45.088;7.658;2024-03-17T00:24:32;15.77;;;7.32;;
74799;SDS011;63326;45.088;7.658;2024-03-17T00:27:02;17.40;;;8.52;;
74799;SDS011;63326;45.088;7.658;2024-03-17T00:29:28;13.50;;;7.85;;
74799;SDS011;63326;45.088;7.658;2024-03-17T00:31:54;14.10;;;8.57;;
74799;SDS011;63326;45.088;7.658;2024-03-17T00:34:21;14.52;;;7.75;;
74799;SDS011;63326;45.088;7.658;2024-03-17T00:36:49;12.18;;;7.25;;
74799;SDS011;63326;45.088;7.658;2024-03-17T00:39:16;15.77;;;8.07;;
74799;SDS011;63326;45.088;7.658;2024-03-17T00:41:44;15.65;;;8.55;;
74799;SDS011;63326;45.088;7.658;2024-03-17T00:44:12;15.48;;;8.20;;
74799;SDS011;63326;45.088;7.658;2024-03-17T00:46:39;15.02;;;7.90;;
74799;SDS011;63326;45.088;7.658;2024-03-17T00:49:08;16.77;;;8.73;;
74799;SDS011;63326;45.088;7.658;2024-03-17T00:51:36;14.95;;;8.00;;
74799;SDS011;63326;45.088;7.658;2024-03-17T00:56:29;14.05;;;8.07;;
74799;SDS011;63326;45.088;7.658;2024-03-17T00:58:56;14.30;;;8.70;;
74799;SDS011;63326;45.088;7.658;2024-03-17T01:01:25;16.10;;;9.00;;
74799;SDS011;63326;45.088;7.658;2024-03-17T01:03:52;12.48;;;8.00;;
74799;SDS011;63326;45.088;7.658;2024-03-17T01:06:19;15.70;;;8.50;;
74799;SDS011;63326;45.088;7.658;2024-03-17T01:08:48;11.70;;;7.32;;
74799;SDS011;63326;45.088;7.658;2024-03-17T01:11:18;12.43;;;7.75;;
74799;SDS011;63326;45.088;7.658;2024-03-17T01:13:45;13.18;;;7.78;;
74799;SDS011;63326;45.088;7.658;2024-03-17T01:16:17;12.30;;;7.25;;
74799;SDS011;63326;45.088;7.658;2024-03-17T01:18:43;16.27;;;7.93;;
74799;SDS011;63326;45.088;7.658;2024-03-17T01:21:11;9.05;;;6.65;;
74799;SDS011;63326;45.088;7.658;2024-03-17T01:23:38;12.13;;;6.43;;
74799;SDS011;63326;45.088;7.658;2024-03-17T01:26:06;13.07;;;6.55;;
74799;SDS011;63326;45.088;7.658;2024-03-17T01:28:32;15.98;;;6.35;;
74799;SDS011;63326;45.088;7.658;2024-03-17T01:30:58;11.38;;;7.28;;
74799;SDS011;63326;45.088;7.658;2024-03-17T01:33:26;12.27;;;6.38;;
74799;SDS011;63326;45.088;7.658;2024-03-17T01:35:53;12.38;;;7.55;;
74799;SDS011;63326;45.088;7.658;2024-03-17T01:38:22;13.05;;;7.30;;
74799;SDS011;63326;45.088;7.658;2024-03-17T01:40:49;14.55;;;7.65;;
74799;SDS011;63326;45.088;7.658;2024-03-17T01:43:18;12.80;;;7.18;;
74799;SDS011;63326;45.088;7.658;2024-03-17T01:45:49;12.80;;;7.03;;
74799;SDS011;63326;45.088;7.658;2024-03-17T01:48:16;10.38;;;7.00;;
74799;SDS011;63326;45.088;7.658;2024-03-17T01:50:45;9.70;;;5.45;;
74799;SDS011;63326;45.088;7.658;2024-03-17T01:53:15;11.30;;;6.57;;
74799;SDS011;63326;45.088;7.658;2024-03-17T01:55:42;12.68;;;7.07;;
74799;SDS011;63326;45.088;7.658;2024-03-17T01:58:11;14.05;;;7.82;;
74799;SDS011;63326;45.088;7.658;2024-03-17T02:00:39;9.27;;;5.70;;
74799;SDS011;63326;45.088;7.658;2024-03-17T02:03:06;11.80;;;6.75;;
74799;SDS011;63326;45.088;7.658;2024-03-17T02:05:41;11.10;;;6.68;;
74799;SDS011;63326;45.088;7.658;2024-03-17T02:08:09;10.70;;;6.78;;
74799;SDS011;63326;45.088;7.658;2024-03-17T02:10:39;11.65;;;6.20;;
74799;SDS011;63326;45.088;7.658;2024-03-17T02:13:09;12.23;;;6.05;;
74799;SDS011;63326;45.088;7.658;2024-03-17T02:15:35;11.35;;;6.55;;
74799;SDS011;63326;45.088;7.658;2024-03-17T02:18:05;11.48;;;6.28;;
74799;SDS011;63326;45.088;7.658;2024-03-17T02:20:31;10.80;;;6.68;;
74799;SDS011;63326;45.088;7.658;2024-03-17T02:26:15;10.50;;;6.10;;
74799;SDS011;63326;45.088;7.658;2024-03-17T02:28:41;14.57;;;7.30;;
74799;SDS011;63326;45.088;7.658;2024-03-17T02:33:45;8.35;;;6.18;;
74799;SDS011;63326;45.088;7.658;2024-03-17T02:36:18;9.27;;;5.13;;
74799;SDS011;63326;45.088;7.658;2024-03-17T02:38:52;9.23;;;5.57;;
74799;SDS011;63326;45.088;7.658;2024-03-17T02:41:37;11.20;;;6.35;;
74799;SDS011;63326;45.088;7.658;2024-03-17T02:44:03;11.35;;;6.20;;
74799;SDS011;63326;45.088;7.658;2024-03-17T02:46:32;11.40;;;5.45;;
74799;SDS011;63326;45.088;7.658;2024-03-17T02:49:05;11.60;;;6.45;;
74799;SDS011;63326;45.088;7.658;2024-03-17T02:51:33;11.32;;;6.18;;
74799;SDS011;63326;45.088;7.658;2024-03-17T02:53:59;9.23;;;5.43;;
74799;SDS011;63326;45.088;7.658;2024-03-17T02:56:27;9.15;;;5.63;;
74799;SDS011;63326;45.088;7.658;2024-03-17T02:58:52;8.93;;;5.20;;
74799;SDS011;63326;45.088;7.658;2024-03-17T03:01:21;9.82;;;6.07;;
74799;SDS011;63326;45.088;7.658;2024-03-17T03:03:47;10.10;;;5.22;;
74799;SDS011;63326;45.088;7.658;2024-03-17T03:06:15;9.73;;;5.70;;
74799;SDS011;63326;45.088;7.658;2024-03-17T03:08:45;7.85;;;5.22;;
74799;SDS011;63326;45.088;7.658;2024-03-17T03:11:16;9.23;;;5.45;;
74799;SDS011;63326;45.088;7.658;2024-03-17T03:13:43;13.27;;;6.03;;
74799;SDS011;63326;45.088;7.658;2024-03-17T03:16:11;11.32;;;5.55;;
74799;SDS011;63326;45.088;7.658;2024-03-17T03:18:40;7.88;;;5.20;;
74799;SDS011;63326;45.088;7.658;2024-03-17T03:21:13;9.70;;;5.95;;
74799;SDS011;63326;45.088;7.658;2024-03-17T03:23:39;8.93;;;5.35;;
74799;SDS011;63326;45.088;7.658;2024-03-17T03:26:05;8.95;;;5.55;;
74799;SDS011;63326;45.088;7.658;2024-03-17T03:28:35;8.93;;;5.10;;
74799;SDS011;63326;45.088;7.658;2024-03-17T03:31:01;8.10;;;5.18;;
74799;SDS011;63326;45.088;7.658;2024-03-17T03:33:27;12.05;;;6.40;;
74799;SDS011;63326;45.088;7.658;2024-03-17T03:35:55;10.55;;;6.57;;
74799;SDS011;63326;45.088;7.658;2024-03-17T03:38:24;11.15;;;5.70;;
74799;SDS011;63326;45.088;7.658;2024-03-17T03:40:52;11.95;;;6.50;;
74799;SDS011;63326;45.088;7.658;2024-03-17T03:43:22;11.38;;;6.55;;
74799;SDS011;63326;45.088;7.658;2024-03-17T03:45:48;10.23;;;4.65;;
74799;SDS011;63326;45.088;7.658;2024-03-17T03:48:14;8.75;;;5.72;;
74799;SDS011;63326;45.088;7.658;2024-03-17T03:50:42;8.80;;;5.03;;
74799;SDS011;63326;45.088;7.658;2024-03-17T03:53:14;8.48;;;4.95;;
74799;SDS011;63326;45.088;7.658;2024-03-17T03:55:42;5.88;;;4.47;;
74799;SDS011;63326;45.088;7.658;2024-03-17T03:58:09;9.60;;;5.72;;
74799;SDS011;63326;45.088;7.658;2024-03-17T04:00:38;14.32;;;7.18;;
74799;SDS011;63326;45.088;7.658;2024-03-17T04:03:06;8.75;;;4.88;;
74799;SDS011;63326;45.088;7.658;2024-03-17T04:05:32;8.93;;;5.25;;
74799;SDS011;63326;45.088;7.658;2024-03-17T04:08:00;8.00;;;6.15;;
74799;SDS011;63326;45.088;7.658;2024-03-17T04:10:27;10.40;;;5.45;;
74799;SDS011;63326;45.088;7.658;2024-03-17T04:12:54;8.23;;;4.43;;
74799;SDS011;63326;45.088;7.658;2024-03-17T04:15:20;9.50;;;4.95;;
74799;SDS011;63326;45.088;7.658;2024-03-17T04:17:46;11.80;;;5.30;;
74799;SDS011;63326;45.088;7.658;2024-03-17T04:20:13;8.60;;;4.93;;
74799;SDS011;63326;45.088;7.658;2024-03-17T04:22:40;8.75;;;4.65;;
74799;SDS011;63326;45.088;7.658;2024-03-17T04:25:11;8.48;;;5.25;;
74799;SDS011;63326;45.088;7.658;2024-03-17T04:27:38;9.23;;;4.82;;
74799;SDS011;63326;45.088;7.658;2024-03-17T04:30:05;9.73;;;4.05;;
74799;SDS011;63326;45.088;7.658;2024-03-17T04:32:32;7.45;;;4.57;;
74799;SDS011;63326;45.088;7.658;2024-03-17T04:34:59;7.97;;;4.47;;
74799;SDS011;63326;45.088;7.658;2024-03-17T04:37:30;8.18;;;4.97;;
74799;SDS011;63326;45.088;7.658;2024-03-17T04:39:56;10.55;;;5.10;;
74799;SDS011;63326;45.088;7.658;2024-03-17T04:42:24;9.27;;;4.70;;
74799;SDS011;63326;45.088;7.658;2024-03-17T04:44:53;8.98;;;4.82;;
74799;SDS011;63326;45.088;7.658;2024-03-17T04:47:18;8.63;;;5.28;;
74799;SDS011;63326;45.088;7.658;2024-03-17T04:49:46;10.23;;;5.35;;
74799;SDS011;63326;45.088;7.658;2024-03-17T04:52:15;11.60;;;4.85;;
74799;SDS011;63326;45.088;7.658;2024-03-17T04:54:42;10.65;;;5.25;;
74799;SDS011;63326;45.088;7.658;2024-03-17T04:57:09;9.27;;;5.15;;
74799;SDS011;63326;45.088;7.658;2024-03-17T04:59:35;10.35;;;4.88;;
74799;SDS011;63326;45.088;7.658;2024-03-17T05:02:05;9.60;;;5.82;;
74799;SDS011;63326;45.088;7.658;2024-03-17T05:04:31;9.30;;;4.93;;
74799;SDS011;63326;45.088;7.658;2024-03-17T05:09:30;8.07;;;4.47;;
74799;SDS011;63326;45.088;7.658;2024-03-17T05:11:56;7.53;;;4.10;;
74799;SDS011;63326;45.088;7.658;2024-03-17T05:14:27;7.88;;;4.18;;
74799;SDS011;63326;45.088;7.658;2024-03-17T05:16:53;10.35;;;4.40;;
74799;SDS011;63326;45.088;7.658;2024-03-17T05:19:21;6.65;;;4.55;;
74799;SDS011;63326;45.088;7.658;2024-03-17T05:21:47;8.80;;;4.78;;
74799;SDS011;63326;45.088;7.658;2024-03-17T05:24:13;6.93;;;3.70;;
74799;SDS011;63326;45.088;7.658;2024-03-17T05:26:40;13.50;;;5.80;;
74799;SDS011;63326;45.088;7.658;2024-03-17T05:29:12;6.93;;;4.28;;
74799;SDS011;63326;45.088;7.658;2024-03-17T05:31:38;8.30;;;4.95;;
74799;SDS011;63326;45.088;7.658;2024-03-17T05:34:06;8.85;;;3.83;;
74799;SDS011;63326;45.088;7.658;2024-03-17T05:36:38;8.65;;;4.38;;
74799;SDS011;63326;45.088;7.658;2024-03-17T05:39:04;8.57;;;4.65;;
74799;SDS011;63326;45.088;7.658;2024-03-17T05:41:33;7.32;;;3.83;;
74799;SDS011;63326;45.088;7.658;2024-03-17T05:44:08;6.30;;;3.65;;
74799;SDS011;63326;45.088;7.658;2024-03-17T05:46:59;7.35;;;4.22;;
74799;SDS011;63326;45.088;7.658;2024-03-17T05:49:25;8.05;;;4.20;;
74799;SDS011;63326;45.088;7.658;2024-03-17T05:51:54;9.05;;;4.47;;
74799;SDS011;63326;45.088;7.658;2024-03-17T05:54:24;7.05;;;3.40;;
74799;SDS011;63326;45.088;7.658;2024-03-17T05:56:52;8.02;;;4.40;;
74799;SDS011;63326;45.088;7.658;2024-03-17T05:59:18;8.00;;;4.38;;
74799;SDS011;63326;45.088;7.658;2024-03-17T06:01:44;7.93;;;4.68;;
74799;SDS011;63326;45.088;7.658;2024-03-17T06:04:10;5.65;;;3.88;;
74799;SDS011;63326;45.088;7.658;2024-03-17T06:06:40;7.05;;;4.60;;
74799;SDS011;63326;45.088;7.658;2024-03-17T06:09:07;7.43;;;4.15;;
74799;SDS011;63326;45.088;7.658;2024-03-17T06:11:37;8.52;;;4.30;;
74799;SDS011;63326;45.088;7.658;2024-03-17T06:14:07;4.80;;;3.20;;
74799;SDS011;63326;45.088;7.658;2024-03-17T06:16:37;6.90;;;4.18;;
74799;SDS011;63326;45.088;7.658;2024-03-17T06:19:06;7.65;;;3.53;;
74799;SDS011;63326;45.088;7.658;2024-03-17T06:21:32;6.78;;;3.70;;
74799;SDS011;63326;45.088;7.658;2024-03-17T06:23:59;7.25;;;3.92;;
74799;SDS011;63326;45.088;7.658;2024-03-17T06:26:25;5.15;;;2.88;;
74799;SDS011;63326;45.088;7.658;2024-03-17T06:28:52;5.57;;;3.63;;
74799;SDS011;63326;45.088;7.658;2024-03-17T06:31:18;9.13;;;4.00;;
74799;SDS011;63326;45.088;7.658;2024-03-17T06:33:46;9.95;;;3.75;;
74799;SDS011;63326;45.088;7.658;2024-03-17T06:36:13;5.40;;;3.13;;
74799;SDS011;63326;45.088;7.658;2024-03-17T06:38:42;8.52;;;3.60;;
74799;SDS011;63326;45.088;7.658;2024-03-17T06:41:11;8.32;;;3.38;;
74799;SDS011;63326;45.088;7.658;2024-03-17T06:43:42;5.95;;;3.03;;
74799;SDS011;63326;45.088;7.658;2024-03-17T06:46:10;5.90;;;2.90;;
74799;SDS011;63326;45.088;7.658;2024-03-17T06:48:37;5.45;;;3.45;;
74799;SDS011;63326;45.088;7.658;2024-03-17T06:51:05;4.95;;;3.03;;
74799;SDS011;63326;45.088;7.658;2024-03-17T06:53:31;8.82;;;4.00;;
74799;SDS011;63326;45.088;7.658;2024-03-17T06:55:59;5.80;;;3.25;;
74799;SDS011;63326;45.088;7.658;2024-03-17T06:58:26;4.82;;;3.08;;
74799;SDS011;63326;45.088;7.658;2024-03-17T07:00:59;6.07;;;3.15;;
74799;SDS011;63326;45.088;7.658;2024-03-17T07:03:28;5.47;;;3.00;;
74799;SDS011;63326;45.088;7.658;2024-03-17T07:05:57;5.10;;;3.08;;
74799;SDS011;63326;45.088;7.658;2024-03-17T07:08:31;5.20;;;2.67;;
74799;SDS011;63326;45.088;7.658;2024-03-17T07:10:59;5.10;;;3.33;;
74799;SDS011;63326;45.088;7.658;2024-03-17T07:13:31;10.60;;;2.50;;
74799;SDS011;63326;45.088;7.658;2024-03-17T07:16:07;5.28;;;2.67;;
74799;SDS011;63326;45.088;7.658;2024-03-17T07:18:35;5.82;;;2.92;;
74799;SDS011;63326;45.088;7.658;2024-03-17T07:21:02;4.88;;;2.67;;
74799;SDS011;63326;45.088;7.658;2024-03-17T07:23:30;5.55;;;3.22;;
74799;SDS011;63326;45.088;7.658;2024-03-17T07:25:59;6.22;;;3.35;;
74799;SDS011;63326;45.088;7.658;2024-03-17T07:28:26;4.72;;;2.97;;
74799;SDS011;63326;45.088;7.658;2024-03-17T07:30:53;6.15;;;3.33;;
74799;SDS011;63326;45.088;7.658;2024-03-17T07:33:24;5.13;;;2.95;;
74799;SDS011;63326;45.088;7.658;2024-03-17T07:35:51;6.10;;;3.53;;
74799;SDS011;63326;45.088;7.658;2024-03-17T07:38:25;6.20;;;2.92;;
74799;SDS011;63326;45.088;7.658;2024-03-17T07:41:00;5.70;;;3.30;;
74799;SDS011;63326;45.088;7.658;2024-03-17T07:43:34;6.63;;;3.28;;
74799;SDS011;63326;45.088;7.658;2024-03-17T07:46:08;5.85;;;3.08;;
74799;SDS011;63326;45.088;7.658;2024-03-17T07:48:40;5.55;;;2.67;;
74799;SDS011;63326;45.088;7.658;2024-03-17T07:51:12;5.47;;;3.53;;
74799;SDS011;63326;45.088;7.658;2024-03-17T07:53:40;8.18;;;4.03;;
74799;SDS011;63326;45.088;7.658;2024-03-17T07:56:14;6.30;;;3.15;;
74799;SDS011;63326;45.088;7.658;2024-03-17T08:01:17;5.32;;;3.38;;
74799;SDS011;63326;45.088;7.658;2024-03-17T08:03:50;5.07;;;3.35;;
74799;SDS011;63326;45.088;7.658;2024-03-17T08:06:27;5.57;;;3.40;;
74799;SDS011;63326;45.088;7.658;2024-03-17T08:09:05;7.68;;;4.20;;
74799;SDS011;63326;45.088;7.658;2024-03-17T08:11:36;9.10;;;4.20;;
74799;SDS011;63326;45.088;7.658;2024-03-17T08:14:03;7.80;;;4.75;;
74799;SDS011;63326;45.088;7.658;2024-03-17T08:17:10;12.88;;;4.85;;
74799;SDS011;63326;45.088;7.658;2024-03-17T08:19:39;7.90;;;4.85;;
74799;SDS011;63326;45.088;7.658;2024-03-17T08:22:08;10.75;;;5.00;;
74799;SDS011;63326;45.088;7.658;2024-03-17T08:24:36;10.90;;;4.70;;
74799;SDS011;63326;45.088;7.658;2024-03-17T08:27:05;9.25;;;4.95;;
74799;SDS011;63326;45.088;7.658;2024-03-17T08:29:37;10.10;;;5.20;;
74799;SDS011;63326;45.088;7.658;2024-03-17T08:32:06;10.07;;;5.50;;
74799;SDS011;63326;45.088;7.658;2024-03-17T08:34:51;10.80;;;6.20;;
74799;SDS011;63326;45.088;7.658;2024-03-17T08:37:25;11.70;;;5.40;;
74799;SDS011;63326;45.088;7.658;2024-03-17T08:39:54;10.88;;;5.75;;
74799;SDS011;63326;45.088;7.658;2024-03-17T08:43:15;11.48;;;6.22;;
74799;SDS011;63326;45.088;7.658;2024-03-17T08:46:07;12.18;;;5.72;;
74799;SDS011;63326;45.088;7.658;2024-03-17T08:48:53;12.10;;;6.68;;
74799;SDS011;63326;45.088;7.658;2024-03-17T08:51:35;12.05;;;6.18;;
74799;SDS011;63326;45.088;7.658;2024-03-17T08:56:56;9.48;;;5.47;;
74799;SDS011;63326;45.088;7.658;2024-03-17T08:59:32;9.73;;;5.00;;
74799;SDS011;63326;45.088;7.658;2024-03-17T09:02:01;10.98;;;5.68;;
74799;SDS011;63326;45.088;7.658;2024-03-17T09:04:30;9.73;;;5.75;;
74799;SDS011;63326;45.088;7.658;2024-03-17T09:06:57;9.68;;;5.82;;
74799;SDS011;63326;45.088;7.658;2024-03-17T09:09:30;8.25;;;4.97;;
74799;SDS011;63326;45.088;7.658;2024-03-17T09:12:40;8.68;;;5.15;;
74799;SDS011;63326;45.088;7.658;2024-03-17T09:15:08;7.85;;;5.03;;
74799;SDS011;63326;45.088;7.658;2024-03-17T09:17:35;9.52;;;5.65;;
74799;SDS011;63326;45.088;7.658;2024-03-17T09:20:01;7.28;;;4.78;;
74799;SDS011;63326;45.088;7.658;2024-03-17T09:22:30;8.57;;;4.38;;
74799;SDS011;63326;45.088;7.658;2024-03-17T09:26:09;6.90;;;4.25;;
74799;SDS011;63326;45.088;7.658;2024-03-17T09:28:41;8.07;;;3.78;;
74799;SDS011;63326;45.088;7.658;2024-03-17T09:31:09;6.65;;;4.18;;
74799;SDS011;63326;45.088;7.658;2024-03-17T09:33:39;7.28;;;4.00;;
74799;SDS011;63326;45.088;7.658;2024-03-17T09:36:06;10.43;;;4.95;;
74799;SDS011;63326;45.088;7.658;2024-03-17T09:38:37;7.28;;;3.55;;
74799;SDS011;63326;45.088;7.658;2024-03-17T09:43:32;8.10;;;4.00;;
74799;SDS011;63326;45.088;7.658;2024-03-17T09:46:01;9.88;;;5.22;;
74799;SDS011;63326;45.088;7.658;2024-03-17T09:48:28;10.18;;;5.18;;
74799;SDS011;63326;45.088;7.658;2024-03-17T09:50:55;9.13;;;4.82;;
74799;SDS011;63326;45.088;7.658;2024-03-17T09:53:26;9.25;;;5.07;;
74799;SDS011;63326;45.088;7.658;2024-03-17T09:56:01;7.95;;;4.70;;
74799;SDS011;63326;45.088;7.658;2024-03-17T09:58:36;12.18;;;5.75;;
74799;SDS011;63326;45.088;7.658;2024-03-17T10:01:04;9.68;;;6.38;;
74799;SDS011;63326;45.088;7.658;2024-03-17T10:03:40;10.30;;;5.55;;
74799;SDS011;63326;45.088;7.658;2024-03-17T10:06:48;12.40;;;6.55;;
74799;SDS011;63326;45.088;7.658;2024-03-17T10:09:15;14.60;;;5.70;;
74799;SDS011;63326;45.088;7.658;2024-03-17T10:11:47;14.65;;;7.53;;
74799;SDS011;63326;45.088;7.658;2024-03-17T10:14:18;12.05;;;6.40;;
74799;SDS011;63326;45.088;7.658;2024-03-17T10:16:44;12.02;;;6.07;;
74799;SDS011;63326;45.088;7.658;2024-03-17T10:19:24;12.57;;;7.13;;
74799;SDS011;63326;45.088;7.658;2024-03-17T10:22:00;8.77;;;5.55;;
74799;SDS011;63326;45.088;7.658;2024-03-17T10:24:29;11.65;;;6.13;;
74799;SDS011;63326;45.088;7.658;2024-03-17T10:26:55;9.32;;;5.72;;
74799;SDS011;63326;45.088;7.658;2024-03-17T10:29:34;12.55;;;6.38;;
74799;SDS011;63326;45.088;7.658;2024-03-17T10:32:15;11.85;;;6.18;;
74799;SDS011;63326;45.088;7.658;2024-03-17T10:34:51;10.23;;;5.93;;
74799;SDS011;63326;45.088;7.658;2024-03-17T10:37:21;11.95;;;7.03;;
74799;SDS011;63326;45.088;7.658;2024-03-17T10:39:53;12.68;;;6.72;;
74799;SDS011;63326;45.088;7.658;2024-03-17T10:42:26;10.88;;;7.00;;
74799;SDS011;63326;45.088;7.658;2024-03-17T10:45:06;10.07;;;6.18;;
74799;SDS011;63326;45.088;7.658;2024-03-17T10:47:35;17.42;;;7.07;;
74799;SDS011;63326;45.088;7.658;2024-03-17T10:50:04;11.40;;;7.00;;
74799;SDS011;63326;45.088;7.658;2024-03-17T10:52:40;12.52;;;6.93;;
74799;SDS011;63326;45.088;7.658;2024-03-17T10:55:25;14.75;;;6.85;;
74799;SDS011;63326;45.088;7.658;2024-03-17T10:57:53;14.13;;;6.53;;
74799;SDS011;63326;45.088;7.658;2024-03-17T11:00:23;17.17;;;7.32;;
74799;SDS011;63326;45.088;7.658;2024-03-17T11:03:04;13.05;;;7.47;;
74799;SDS011;63326;45.088;7.658;2024-03-17T11:05:41;9.45;;;5.38;;
74799;SDS011;63326;45.088;7.658;2024-03-17T11:08:14;10.50;;;5.75;;
74799;SDS011;63326;45.088;7.658;2024-03-17T11:10:49;12.00;;;5.82;;
74799;SDS011;63326;45.088;7.658;2024-03-17T11:13:35;11.45;;;7.18;;
74799;SDS011;63326;45.088;7.658;2024-03-17T11:16:06;10.70;;;5.97;;
74799;SDS011;63326;45.088;7.658;2024-03-17T11:18:54;11.38;;;6.72;;
74799;SDS011;63326;45.088;7.658;2024-03-17T11:21:33;12.75;;;6.60;;
74799;SDS011;63326;45.088;7.658;2024-03-17T11:24:02;11.75;;;6.30;;
74799;SDS011;63326;45.088;7.658;2024-03-17T11:29:55;11.60;;;6.25;;
74799;SDS011;63326;45.088;7.658;2024-03-17T11:32:26;11.25;;;6.75;;
74799;SDS011;63326;45.088;7.658;2024-03-17T11:35:12;11.20;;;6.93;;
74799;SDS011;63326;45.088;7.658;2024-03-17T11:37:42;11.75;;;6.38;;
74799;SDS011;63326;45.088;7.658;2024-03-17T11:40:41;13.20;;;7.00;;
74799;SDS011;63326;45.088;7.658;2024-03-17T11:43:04;13.52;;;7.22;;
74799;SDS011;63326;45.088;7.658;2024-03-17T11:45:33;11.77;;;6.70;;
74799;SDS011;63326;45.088;7.658;2024-03-17T11:48:06;12.63;;;8.13;;
74799;SDS011;63326;45.088;7.658;2024-03-17T11:50:39;12.18;;;6.85;;
74799;SDS011;63326;45.088;7.658;2024-03-17T11:53:09;13.10;;;7.72;;
74799;SDS011;63326;45.088;7.658;2024-03-17T11:55:36;12.00;;;7.40;;
74799;SDS011;63326;45.088;7.658;2024-03-17T11:58:11;17.27;;;8.13;;
74799;SDS011;63326;45.088;7.658;2024-03-17T12:00:40;13.20;;;8.02;;
74799;SDS011;63326;45.088;7.658;2024-03-17T12:03:18;10.55;;;6.90;;
74799;SDS011;63326;45.088;7.658;2024-03-17T12:05:46;16.00;;;7.07;;
74799;SDS011;63326;45.088;7.658;2024-03-17T12:08:22;12.82;;;7.63;;
74799;SDS011;63326;45.088;7.658;2024-03-17T12:10:48;11.27;;;6.78;;
74799;SDS011;63326;45.088;7.658;2024-03-17T12:13:18;12.30;;;6.95;;
74799;SDS011;63326;45.088;7.658;2024-03-17T12:15:44;12.82;;;6.65;;
74799;SDS011;63326;45.088;7.658;2024-03-17T12:18:19;12.27;;;6.32;;
74799;SDS011;63326;45.088;7.658;2024-03-17T12:21:01;14.55;;;7.72;;
74799;SDS011;63326;45.088;7.658;2024-03-17T12:23:29;12.23;;;7.22;;
74799;SDS011;63326;45.088;7.658;2024-03-17T12:25:55;10.48;;;6.78;;
74799;SDS011;63326;45.088;7.658;2024-03-17T12:28:22;10.77;;;7.25;;
74799;SDS011;63326;45.088;7.658;2024-03-17T12:30:48;11.48;;;6.07;;
74799;SDS011;63326;45.088;7.658;2024-03-17T12:33:15;10.30;;;5.80;;
74799;SDS011;63326;45.088;7.658;2024-03-17T12:35:46;12.18;;;6.78;;
74799;SDS011;63326;45.088;7.658;2024-03-17T12:38:19;10.82;;;6.00;;
74799;SDS011;63326;45.088;7.658;2024-03-17T12:40:50;9.45;;;5.60;;
74799;SDS011;63326;45.088;7.658;2024-03-17T12:43:16;9.43;;;5.05;;
74799;SDS011;63326;45.088;7.658;2024-03-17T12:45:42;11.75;;;5.93;;
74799;SDS011;63326;45.088;7.658;2024-03-17T12:48:14;9.85;;;5.90;;
74799;SDS011;63326;45.088;7.658;2024-03-17T12:50:45;10.20;;;6.00;;
74799;SDS011;63326;45.088;7.658;2024-03-17T12:53:15;10.35;;;6.70;;
74799;SDS011;63326;45.088;7.658;2024-03-17T12:55:54;9.70;;;5.63;;
74799;SDS011;63326;45.088;7.658;2024-03-17T12:58:39;10.98;;;6.85;;
74799;SDS011;63326;45.088;7.658;2024-03-17T13:01:24;9.77;;;6.05;;
74799;SDS011;63326;45.088;7.658;2024-03-17T13:03:51;10.20;;;5.60;;
74799;SDS011;63326;45.088;7.658;2024-03-17T13:06:22;9.65;;;5.05;;
74799;SDS011;63326;45.088;7.658;2024-03-17T13:08:53;8.77;;;5.07;;
74799;SDS011;63326;45.088;7.658;2024-03-17T13:11:22;8.50;;;5.35;;
74799;SDS011;63326;45.088;7.658;2024-03-17T13:13:49;10.95;;;6.50;;
74799;SDS011;63326;45.088;7.658;2024-03-17T13:16:15;10.05;;;6.32;;
74799;SDS011;63326;45.088;7.658;2024-03-17T13:19:08;9.50;;;5.38;;
74799;SDS011;63326;45.088;7.658;2024-03-17T13:24:06;8.82;;;4.63;;
74799;SDS011;63326;45.088;7.658;2024-03-17T13:26:34;7.22;;;4.63;;
74799;SDS011;63326;45.088;7.658;2024-03-17T13:29:02;6.97;;;4.38;;
74799;SDS011;63326;45.088;7.658;2024-03-17T13:31:28;6.10;;;3.72;;
74799;SDS011;63326;45.088;7.658;2024-03-17T13:33:57;6.97;;;4.00;;
74799;SDS011;63326;45.088;7.658;2024-03-17T13:36:23;6.78;;;3.75;;
74799;SDS011;63326;45.088;7.658;2024-03-17T13:38:52;6.57;;;3.97;;
74799;SDS011;63326;45.088;7.658;2024-03-17T13:41:20;5.85;;;3.33;;
74799;SDS011;63326;45.088;7.658;2024-03-17T13:43:53;6.57;;;3.90;;
74799;SDS011;63326;45.088;7.658;2024-03-17T13:46:24;8.23;;;3.95;;
74799;SDS011;63326;45.088;7.658;2024-03-17T13:48:50;6.63;;;4.05;;
74799;SDS011;63326;45.088;7.658;2024-03-17T13:51:23;8.45;;;4.82;;
74799;SDS011;63326;45.088;7.658;2024-03-17T13:53:49;7.70;;;3.08;;
74799;SDS011;63326;45.088;7.658;2024-03-17T13:56:15;7.00;;;3.78;;
74799;SDS011;63326;45.088;7.658;2024-03-17T13:58:43;5.88;;;3.47;;
74799;SDS011;63326;45.088;7.658;2024-03-17T14:01:10;7.45;;;4.30;;
74799;SDS011;63326;45.088;7.658;2024-03-17T14:03:37;9.02;;;4.88;;
74799;SDS011;63326;45.088;7.658;2024-03-17T14:06:03;10.18;;;4.72;;
74799;SDS011;63326;45.088;7.658;2024-03-17T14:08:31;7.00;;;3.67;;
74799;SDS011;63326;45.088;7.658;2024-03-17T14:10:58;8.52;;;4.43;;
74799;SDS011;63326;45.088;7.658;2024-03-17T14:13:24;7.10;;;3.97;;
74799;SDS011;63326;45.088;7.658;2024-03-17T14:15:51;10.70;;;4.82;;
74799;SDS011;63326;45.088;7.658;2024-03-17T14:18:31;7.68;;;3.78;;
74799;SDS011;63326;45.088;7.658;2024-03-17T14:23:32;9.15;;;5.15;;
74799;SDS011;63326;45.088;7.658;2024-03-17T14:26:03;9.93;;;5.82;;
74799;SDS011;63326;45.088;7.658;2024-03-17T14:28:32;7.85;;;4.95;;
74799;SDS011;63326;45.088;7.658;2024-03-17T14:30:59;8.35;;;4.93;;
74799;SDS011;63326;45.088;7.658;2024-03-17T14:33:34;10.25;;;5.00;;
74799;SDS011;63326;45.088;7.658;2024-03-17T14:36:04;10.68;;;5.13;;
74799;SDS011;63326;45.088;7.658;2024-03-17T14:38:31;7.95;;;4.60;;
74799;SDS011;63326;45.088;7.658;2024-03-17T14:40:58;8.90;;;4.93;;
74799;SDS011;63326;45.088;7.658;2024-03-17T14:43:33;9.88;;;4.72;;
74799;SDS011;63326;45.088;7.658;2024-03-17T14:46:04;10.88;;;5.43;;
74799;SDS011;63326;45.088;7.658;2024-03-17T14:48:37;9.30;;;5.55;;
74799;SDS011;63326;45.088;7.658;2024-03-17T14:51:09;7.53;;;5.45;;
74799;SDS011;63326;45.088;7.658;2024-03-17T14:53:37;11.05;;;4.88;;
74799;SDS011;63326;45.088;7.658;2024-03-17T14:56:47;11.02;;;4.80;;
74799;SDS011;63326;45.088;7.658;2024-03-17T14:59:14;8.85;;;5.20;;
74799;SDS011;63326;45.088;7.658;2024-03-17T15:02:20;10.45;;;5.82;;
74799;SDS011;63326;45.088;7.658;2024-03-17T15:05:03;6.65;;;4.55;;
74799;SDS011;63326;45.088;7.658;2024-03-17T15:07:33;11.40;;;6.32;;
74799;SDS011;63326;45.088;7.658;2024-03-17T15:11:01;11.23;;;4.32;;
74799;SDS011;63326;45.088;7.658;2024-03-17T15:13:48;8.60;;;5.20;;
74799;SDS011;63326;45.088;7.658;2024-03-17T15:16:50;9.25;;;5.28;;
74799;SDS011;63326;45.088;7.658;2024-03-17T15:19:23;8.65;;;5.38;;
74799;SDS011;63326;45.088;7.658;2024-03-17T15:22:16;10.52;;;5.20;;
74799;SDS011;63326;45.088;7.658;2024-03-17T15:24:48;8.43;;;5.30;;
74799;SDS011;63326;45.088;7.658;2024-03-17T15:27:17;10.95;;;6.53;;
74799;SDS011;63326;45.088;7.658;2024-03-17T15:29:56;11.02;;;4.80;;
74799;SDS011;63326;45.088;7.658;2024-03-17T15:32:29;12.75;;;6.07;;
74799;SDS011;63326;45.088;7.658;2024-03-17T15:34:58;10.65;;;5.28;;